sensor_id;sensor_type;location;lat;lon;timestamp;P1;durP1;ratioP1;P2;durP2;ratioP2
23317;SDS011;11831;55.918;37.746;2023-07-16T00:00:36;7.00;;;5.10;;
23317;SDS011;11831;55.918;37.746;2023-07-16T00:03:03;8.27;;;5.28;;
23317;SDS011;11831;55.918;37.746;2023-07-16T00:05:29;6.47;;;5.37;;
23317;SDS011;11831;55.918;37.746;2023-07-16T00:07:56;8.57;;;5.20;;
23317;SDS011;11831;55.918;37.746;2023-07-16T00:10:22;7.32;;;5.82;;
23317;SDS011;11831;55.918;37.746;2023-07-16T00:12:48;5.60;;;5.18;;
23317;SDS011;11831;55.918;37.746;2023-07-16T00:15:15;6.70;;;5.82;;
23317;SDS011;11831;55.918;37.746;2023-07-16T00:17:41;7.87;;;5.57;;
23317;SDS011;11831;55.918;37.746;2023-07-16T00:20:07;7.18;;;5.30;;
23317;SDS011;11831;55.918;37.746;2023-07-16T00:22:35;7.43;;;5.20;;
23317;SDS011;11831;55.918;37.746;2023-07-16T00:25:01;6.93;;;5.20;;
23317;SDS011;11831;55.918;37.746;2023-07-16T00:27:29;7.45;;;5.20;;
23317;SDS011;11831;55.918;37.746;2023-07-16T00:29:56;6.12;;;5.28;;
23317;SDS011;11831;55.918;37.746;2023-07-16T00:32:22;7.00;;;5.68;;
23317;SDS011;11831;55.918;37.746;2023-07-16T00:34:48;8.85;;;5.50;;
23317;SDS011;11831;55.918;37.746;2023-07-16T00:37:14;7.57;;;5.70;;
23317;SDS011;11831;55.918;37.746;2023-07-16T00:39:41;5.82;;;4.82;;
23317;SDS011;11831;55.918;37.746;2023-07-16T00:42:07;6.60;;;5.60;;
23317;SDS011;11831;55.918;37.746;2023-07-16T00:44:33;9.70;;;5.87;;
23317;SDS011;11831;55.918;37.746;2023-07-16T00:47:01;7.97;;;5.43;;
23317;SDS011;11831;55.918;37.746;2023-07-16T00:49:27;5.82;;;5.25;;
23317;SDS011;11831;55.918;37.746;2023-07-16T00:51:54;7.12;;;4.97;;
23317;SDS011;11831;55.918;37.746;2023-07-16T00:54:21;7.70;;;5.30;;
23317;SDS011;11831;55.918;37.746;2023-07-16T00:56:48;6.10;;;5.50;;
23317;SDS011;11831;55.918;37.746;2023-07-16T00:59:15;7.05;;;5.60;;
23317;SDS011;11831;55.918;37.746;2023-07-16T01:01:42;6.97;;;4.82;;
23317;SDS011;11831;55.918;37.746;2023-07-16T01:04:08;6.03;;;5.43;;
23317;SDS011;11831;55.918;37.746;2023-07-16T01:06:36;5.82;;;5.22;;
23317;SDS011;11831;55.918;37.746;2023-07-16T01:09:08;6.03;;;5.28;;
23317;SDS011;11831;55.918;37.746;2023-07-16T01:11:40;6.30;;;4.97;;
23317;SDS011;11831;55.918;37.746;2023-07-16T01:14:09;5.22;;;4.70;;
23317;SDS011;11831;55.918;37.746;2023-07-16T01:16:36;6.18;;;5.00;;
23317;SDS011;11831;55.918;37.746;2023-07-16T01:19:02;5.47;;;4.97;;
23317;SDS011;11831;55.918;37.746;2023-07-16T01:24:52;10.02;;;5.03;;
23317;SDS011;11831;55.918;37.746;2023-07-16T01:30:14;5.70;;;5.20;;
23317;SDS011;11831;55.918;37.746;2023-07-16T01:35:11;6.62;;;5.43;;
23317;SDS011;11831;55.918;37.746;2023-07-16T01:37:40;7.47;;;5.47;;
23317;SDS011;11831;55.918;37.746;2023-07-16T01:40:07;6.95;;;5.35;;
23317;SDS011;11831;55.918;37.746;2023-07-16T01:42:35;7.25;;;5.43;;
23317;SDS011;11831;55.918;37.746;2023-07-16T01:45:01;6.60;;;5.35;;
23317;SDS011;11831;55.918;37.746;2023-07-16T01:50:03;5.75;;;5.00;;
23317;SDS011;11831;55.918;37.746;2023-07-16T01:52:29;8.07;;;5.25;;
23317;SDS011;11831;55.918;37.746;2023-07-16T01:54:56;6.82;;;5.03;;
23317;SDS011;11831;55.918;37.746;2023-07-16T01:57:22;8.45;;;5.28;;
23317;SDS011;11831;55.918;37.746;2023-07-16T01:59:48;7.80;;;5.60;;
23317;SDS011;11831;55.918;37.746;2023-07-16T02:02:15;5.95;;;5.40;;
23317;SDS011;11831;55.918;37.746;2023-07-16T02:04:41;6.22;;;5.12;;
23317;SDS011;11831;55.918;37.746;2023-07-16T02:07:07;6.97;;;5.57;;
23317;SDS011;11831;55.918;37.746;2023-07-16T02:09:34;7.55;;;5.85;;
23317;SDS011;11831;55.918;37.746;2023-07-16T02:12:01;6.70;;;5.87;;
23317;SDS011;11831;55.918;37.746;2023-07-16T02:14:27;8.25;;;6.50;;
23317;SDS011;11831;55.918;37.746;2023-07-16T02:16:54;6.90;;;6.25;;
23317;SDS011;11831;55.918;37.746;2023-07-16T02:19:20;9.15;;;6.72;;
23317;SDS011;11831;55.918;37.746;2023-07-16T02:21:46;8.43;;;6.57;;
23317;SDS011;11831;55.918;37.746;2023-07-16T02:24:13;6.53;;;5.90;;
23317;SDS011;11831;55.918;37.746;2023-07-16T02:26:39;9.25;;;6.50;;
23317;SDS011;11831;55.918;37.746;2023-07-16T02:29:05;6.80;;;6.10;;
23317;SDS011;11831;55.918;37.746;2023-07-16T02:31:35;7.75;;;6.10;;
23317;SDS011;11831;55.918;37.746;2023-07-16T02:34:02;6.68;;;6.07;;
23317;SDS011;11831;55.918;37.746;2023-07-16T02:36:28;6.65;;;6.05;;
23317;SDS011;11831;55.918;37.746;2023-07-16T02:38:54;12.02;;;6.37;;
23317;SDS011;11831;55.918;37.746;2023-07-16T02:41:21;8.05;;;6.35;;
23317;SDS011;11831;55.918;37.746;2023-07-16T02:43:47;7.22;;;6.60;;
23317;SDS011;11831;55.918;37.746;2023-07-16T02:46:13;7.60;;;6.85;;
23317;SDS011;11831;55.918;37.746;2023-07-16T02:48:39;9.40;;;5.90;;
23317;SDS011;11831;55.918;37.746;2023-07-16T02:51:06;6.15;;;5.55;;
23317;SDS011;11831;55.918;37.746;2023-07-16T02:53:32;9.63;;;5.90;;
23317;SDS011;11831;55.918;37.746;2023-07-16T02:55:58;6.45;;;5.47;;
23317;SDS011;11831;55.918;37.746;2023-07-16T02:58:25;5.97;;;5.22;;
23317;SDS011;11831;55.918;37.746;2023-07-16T03:00:51;6.50;;;5.55;;
23317;SDS011;11831;55.918;37.746;2023-07-16T03:03:17;7.00;;;5.75;;
23317;SDS011;11831;55.918;37.746;2023-07-16T03:05:43;6.68;;;5.90;;
23317;SDS011;11831;55.918;37.746;2023-07-16T03:08:10;5.90;;;5.07;;
23317;SDS011;11831;55.918;37.746;2023-07-16T03:10:36;7.43;;;5.87;;
23317;SDS011;11831;55.918;37.746;2023-07-16T03:13:02;6.00;;;5.40;;
23317;SDS011;11831;55.918;37.746;2023-07-16T03:15:28;7.43;;;5.40;;
23317;SDS011;11831;55.918;37.746;2023-07-16T03:17:55;8.15;;;5.72;;
23317;SDS011;11831;55.918;37.746;2023-07-16T03:20:21;7.00;;;5.90;;
23317;SDS011;11831;55.918;37.746;2023-07-16T03:22:48;7.68;;;5.60;;
23317;SDS011;11831;55.918;37.746;2023-07-16T03:25:14;6.85;;;5.30;;
23317;SDS011;11831;55.918;37.746;2023-07-16T03:27:40;8.18;;;5.78;;
23317;SDS011;11831;55.918;37.746;2023-07-16T03:30:07;9.52;;;5.85;;
23317;SDS011;11831;55.918;37.746;2023-07-16T03:32:34;10.15;;;6.20;;
23317;SDS011;11831;55.918;37.746;2023-07-16T03:35:00;6.93;;;5.93;;
23317;SDS011;11831;55.918;37.746;2023-07-16T03:37:27;7.00;;;5.82;;
23317;SDS011;11831;55.918;37.746;2023-07-16T03:39:53;7.78;;;5.30;;
23317;SDS011;11831;55.918;37.746;2023-07-16T03:42:20;8.15;;;5.75;;
23317;SDS011;11831;55.918;37.746;2023-07-16T03:44:48;8.75;;;5.80;;
23317;SDS011;11831;55.918;37.746;2023-07-16T03:47:14;8.90;;;6.07;;
23317;SDS011;11831;55.918;37.746;2023-07-16T03:49:40;8.40;;;5.97;;
23317;SDS011;11831;55.918;37.746;2023-07-16T03:52:06;6.93;;;5.05;;
23317;SDS011;11831;55.918;37.746;2023-07-16T03:54:33;7.43;;;5.40;;
23317;SDS011;11831;55.918;37.746;2023-07-16T03:56:59;7.40;;;5.90;;
23317;SDS011;11831;55.918;37.746;2023-07-16T03:59:25;8.75;;;6.07;;
23317;SDS011;11831;55.918;37.746;2023-07-16T04:01:52;8.32;;;5.43;;
23317;SDS011;11831;55.918;37.746;2023-07-16T04:04:18;6.10;;;5.50;;
23317;SDS011;11831;55.918;37.746;2023-07-16T04:06:44;8.43;;;5.95;;
23317;SDS011;11831;55.918;37.746;2023-07-16T04:09:10;8.45;;;5.62;;
23317;SDS011;11831;55.918;37.746;2023-07-16T04:11:36;7.80;;;6.50;;
23317;SDS011;11831;55.918;37.746;2023-07-16T04:14:03;8.00;;;5.97;;
23317;SDS011;11831;55.918;37.746;2023-07-16T04:16:29;6.20;;;5.70;;
23317;SDS011;11831;55.918;37.746;2023-07-16T04:18:55;6.60;;;5.78;;
23317;SDS011;11831;55.918;37.746;2023-07-16T04:21:22;8.05;;;6.00;;
23317;SDS011;11831;55.918;37.746;2023-07-16T04:23:48;6.82;;;5.82;;
23317;SDS011;11831;55.918;37.746;2023-07-16T04:26:14;6.53;;;5.93;;
23317;SDS011;11831;55.918;37.746;2023-07-16T04:28:40;10.43;;;6.72;;
23317;SDS011;11831;55.918;37.746;2023-07-16T04:31:07;6.30;;;5.72;;
23317;SDS011;11831;55.918;37.746;2023-07-16T04:33:33;7.03;;;6.37;;
23317;SDS011;11831;55.918;37.746;2023-07-16T04:35:59;8.00;;;6.35;;
23317;SDS011;11831;55.918;37.746;2023-07-16T04:38:25;9.40;;;6.25;;
23317;SDS011;11831;55.918;37.746;2023-07-16T04:40:52;9.02;;;6.65;;
23317;SDS011;11831;55.918;37.746;2023-07-16T04:43:18;7.55;;;6.57;;
23317;SDS011;11831;55.918;37.746;2023-07-16T04:45:44;7.43;;;6.30;;
23317;SDS011;11831;55.918;37.746;2023-07-16T04:48:12;7.35;;;6.60;;
23317;SDS011;11831;55.918;37.746;2023-07-16T04:50:39;9.10;;;6.78;;
23317;SDS011;11831;55.918;37.746;2023-07-16T04:53:05;8.57;;;6.30;;
23317;SDS011;11831;55.918;37.746;2023-07-16T04:55:38;9.68;;;6.75;;
23317;SDS011;11831;55.918;37.746;2023-07-16T04:58:05;11.95;;;7.55;;
23317;SDS011;11831;55.918;37.746;2023-07-16T05:00:32;9.90;;;7.20;;
23317;SDS011;11831;55.918;37.746;2023-07-16T05:02:59;10.13;;;8.13;;
23317;SDS011;11831;55.918;37.746;2023-07-16T05:05:25;8.25;;;7.37;;
23317;SDS011;11831;55.918;37.746;2023-07-16T05:07:52;8.75;;;6.95;;
23317;SDS011;11831;55.918;37.746;2023-07-16T05:10:18;7.25;;;6.30;;
23317;SDS011;11831;55.918;37.746;2023-07-16T05:12:46;8.13;;;7.03;;
23317;SDS011;11831;55.918;37.746;2023-07-16T05:15:12;7.47;;;6.20;;
23317;SDS011;11831;55.918;37.746;2023-07-16T05:17:38;7.80;;;6.95;;
23317;SDS011;11831;55.918;37.746;2023-07-16T05:20:05;8.45;;;6.90;;
23317;SDS011;11831;55.918;37.746;2023-07-16T05:22:32;8.85;;;6.80;;
23317;SDS011;11831;55.918;37.746;2023-07-16T05:24:59;8.77;;;6.00;;
23317;SDS011;11831;55.918;37.746;2023-07-16T05:27:25;7.72;;;6.87;;
23317;SDS011;11831;55.918;37.746;2023-07-16T05:29:51;7.82;;;6.37;;
23317;SDS011;11831;55.918;37.746;2023-07-16T05:32:17;9.52;;;6.80;;
23317;SDS011;11831;55.918;37.746;2023-07-16T05:34:44;6.72;;;6.07;;
23317;SDS011;11831;55.918;37.746;2023-07-16T05:37:10;7.30;;;6.43;;
23317;SDS011;11831;55.918;37.746;2023-07-16T05:39:37;7.85;;;7.10;;
23317;SDS011;11831;55.918;37.746;2023-07-16T05:42:04;7.32;;;6.28;;
23317;SDS011;11831;55.918;37.746;2023-07-16T05:44:30;7.53;;;6.82;;
23317;SDS011;11831;55.918;37.746;2023-07-16T05:46:57;7.70;;;6.53;;
23317;SDS011;11831;55.918;37.746;2023-07-16T05:49:24;7.32;;;6.37;;
23317;SDS011;11831;55.918;37.746;2023-07-16T05:51:52;8.02;;;6.50;;
23317;SDS011;11831;55.918;37.746;2023-07-16T05:54:20;9.85;;;6.70;;
23317;SDS011;11831;55.918;37.746;2023-07-16T05:56:46;8.43;;;6.47;;
23317;SDS011;11831;55.918;37.746;2023-07-16T05:59:12;6.15;;;5.43;;
23317;SDS011;11831;55.918;37.746;2023-07-16T06:01:38;7.57;;;5.82;;
23317;SDS011;11831;55.918;37.746;2023-07-16T06:04:05;7.10;;;6.40;;
23317;SDS011;11831;55.918;37.746;2023-07-16T06:06:31;9.75;;;7.37;;
23317;SDS011;11831;55.918;37.746;2023-07-16T06:08:57;8.90;;;7.00;;
23317;SDS011;11831;55.918;37.746;2023-07-16T06:11:24;7.90;;;6.62;;
23317;SDS011;11831;55.918;37.746;2023-07-16T06:13:52;7.40;;;6.18;;
23317;SDS011;11831;55.918;37.746;2023-07-16T06:16:20;7.57;;;6.15;;
23317;SDS011;11831;55.918;37.746;2023-07-16T06:18:46;6.72;;;6.12;;
23317;SDS011;11831;55.918;37.746;2023-07-16T06:21:13;8.18;;;6.28;;
23317;SDS011;11831;55.918;37.746;2023-07-16T06:23:39;6.20;;;5.60;;
23317;SDS011;11831;55.918;37.746;2023-07-16T06:26:06;7.57;;;5.87;;
23317;SDS011;11831;55.918;37.746;2023-07-16T06:28:32;8.73;;;5.60;;
23317;SDS011;11831;55.918;37.746;2023-07-16T06:30:59;9.07;;;6.68;;
23317;SDS011;11831;55.918;37.746;2023-07-16T06:33:25;7.85;;;6.20;;
23317;SDS011;11831;55.918;37.746;2023-07-16T06:35:53;6.93;;;5.97;;
23317;SDS011;11831;55.918;37.746;2023-07-16T06:38:19;6.15;;;5.37;;
23317;SDS011;11831;55.918;37.746;2023-07-16T06:40:46;6.00;;;5.40;;
23317;SDS011;11831;55.918;37.746;2023-07-16T06:43:16;8.10;;;5.60;;
23317;SDS011;11831;55.918;37.746;2023-07-16T06:45:42;5.60;;;5.03;;
23317;SDS011;11831;55.918;37.746;2023-07-16T06:48:09;5.90;;;5.40;;
23317;SDS011;11831;55.918;37.746;2023-07-16T06:50:35;6.00;;;5.37;;
23317;SDS011;11831;55.918;37.746;2023-07-16T06:53:01;5.10;;;4.65;;
23317;SDS011;11831;55.918;37.746;2023-07-16T06:55:28;5.93;;;4.82;;
23317;SDS011;11831;55.918;37.746;2023-07-16T06:57:54;5.80;;;4.60;;
23317;SDS011;11831;55.918;37.746;2023-07-16T07:00:20;6.40;;;4.85;;
23317;SDS011;11831;55.918;37.746;2023-07-16T07:02:47;4.97;;;4.57;;
23317;SDS011;11831;55.918;37.746;2023-07-16T07:05:13;5.68;;;4.87;;
23317;SDS011;11831;55.918;37.746;2023-07-16T07:07:39;5.55;;;5.05;;
23317;SDS011;11831;55.918;37.746;2023-07-16T07:10:06;7.53;;;5.10;;
23317;SDS011;11831;55.918;37.746;2023-07-16T07:12:32;7.53;;;5.53;;
23317;SDS011;11831;55.918;37.746;2023-07-16T07:15:06;5.47;;;4.82;;
23317;SDS011;11831;55.918;37.746;2023-07-16T07:17:33;5.70;;;4.80;;
23317;SDS011;11831;55.918;37.746;2023-07-16T07:20:00;5.47;;;4.97;;
23317;SDS011;11831;55.918;37.746;2023-07-16T07:22:30;5.72;;;5.22;;
23317;SDS011;11831;55.918;37.746;2023-07-16T07:24:56;6.12;;;5.28;;
23317;SDS011;11831;55.918;37.746;2023-07-16T07:27:23;5.35;;;4.82;;
23317;SDS011;11831;55.918;37.746;2023-07-16T07:29:49;6.43;;;5.05;;
23317;SDS011;11831;55.918;37.746;2023-07-16T07:32:19;5.70;;;5.07;;
23317;SDS011;11831;55.918;37.746;2023-07-16T07:34:46;7.47;;;5.53;;
23317;SDS011;11831;55.918;37.746;2023-07-16T07:37:12;7.47;;;5.37;;
23317;SDS011;11831;55.918;37.746;2023-07-16T07:39:39;9.15;;;5.35;;
23317;SDS011;11831;55.918;37.746;2023-07-16T07:42:05;8.82;;;5.37;;
23317;SDS011;11831;55.918;37.746;2023-07-16T07:44:32;6.78;;;5.78;;
23317;SDS011;11831;55.918;37.746;2023-07-16T07:46:58;8.25;;;6.05;;
23317;SDS011;11831;55.918;37.746;2023-07-16T07:49:24;5.47;;;4.97;;
23317;SDS011;11831;55.918;37.746;2023-07-16T07:51:51;5.95;;;5.28;;
23317;SDS011;11831;55.918;37.746;2023-07-16T07:54:17;6.15;;;5.55;;
23317;SDS011;11831;55.918;37.746;2023-07-16T07:56:44;10.00;;;7.50;;
23317;SDS011;11831;55.918;37.746;2023-07-16T07:59:11;6.95;;;6.22;;
23317;SDS011;11831;55.918;37.746;2023-07-16T08:01:37;8.63;;;6.80;;
23317;SDS011;11831;55.918;37.746;2023-07-16T08:04:04;9.40;;;6.30;;
23317;SDS011;11831;55.918;37.746;2023-07-16T08:06:30;5.93;;;5.35;;
23317;SDS011;11831;55.918;37.746;2023-07-16T08:08:57;8.40;;;5.07;;
23317;SDS011;11831;55.918;37.746;2023-07-16T08:11:23;6.97;;;5.35;;
23317;SDS011;11831;55.918;37.746;2023-07-16T08:13:49;10.23;;;5.45;;
23317;SDS011;11831;55.918;37.746;2023-07-16T08:16:16;7.00;;;5.32;;
23317;SDS011;11831;55.918;37.746;2023-07-16T08:18:42;5.57;;;5.00;;
23317;SDS011;11831;55.918;37.746;2023-07-16T08:21:08;8.70;;;5.60;;
23317;SDS011;11831;55.918;37.746;2023-07-16T08:23:35;5.97;;;5.35;;
23317;SDS011;11831;55.918;37.746;2023-07-16T08:26:01;5.78;;;5.28;;
23317;SDS011;11831;55.918;37.746;2023-07-16T08:28:27;6.32;;;5.20;;
23317;SDS011;11831;55.918;37.746;2023-07-16T08:30:53;8.30;;;5.10;;
23317;SDS011;11831;55.918;37.746;2023-07-16T08:33:20;6.90;;;4.35;;
23317;SDS011;11831;55.918;37.746;2023-07-16T08:35:46;6.03;;;5.43;;
23317;SDS011;11831;55.918;37.746;2023-07-16T08:38:12;5.43;;;4.93;;
23317;SDS011;11831;55.918;37.746;2023-07-16T08:40:38;6.53;;;4.93;;
23317;SDS011;11831;55.918;37.746;2023-07-16T08:43:06;5.57;;;4.60;;
23317;SDS011;11831;55.918;37.746;2023-07-16T08:45:35;5.30;;;4.80;;
23317;SDS011;11831;55.918;37.746;2023-07-16T08:48:14;5.53;;;4.93;;
23317;SDS011;11831;55.918;37.746;2023-07-16T08:50:42;6.68;;;5.90;;
23317;SDS011;11831;55.918;37.746;2023-07-16T08:53:09;6.20;;;5.60;;
23317;SDS011;11831;55.918;37.746;2023-07-16T08:55:36;8.95;;;8.05;;
23317;SDS011;11831;55.918;37.746;2023-07-16T08:58:04;5.70;;;4.93;;
23317;SDS011;11831;55.918;37.746;2023-07-16T09:00:31;7.87;;;4.93;;
23317;SDS011;11831;55.918;37.746;2023-07-16T09:02:58;5.20;;;4.70;;
23317;SDS011;11831;55.918;37.746;2023-07-16T09:05:24;5.30;;;4.07;;
23317;SDS011;11831;55.918;37.746;2023-07-16T09:07:50;6.45;;;4.57;;
23317;SDS011;11831;55.918;37.746;2023-07-16T09:10:17;6.43;;;4.95;;
23317;SDS011;11831;55.918;37.746;2023-07-16T09:12:45;5.28;;;4.37;;
23317;SDS011;11831;55.918;37.746;2023-07-16T09:15:13;4.87;;;4.12;;
23317;SDS011;11831;55.918;37.746;2023-07-16T09:17:48;5.43;;;3.80;;
23317;SDS011;11831;55.918;37.746;2023-07-16T09:20:15;4.50;;;4.12;;
23317;SDS011;11831;55.918;37.746;2023-07-16T09:22:43;5.12;;;4.18;;
23317;SDS011;11831;55.918;37.746;2023-07-16T09:25:10;4.15;;;3.75;;
23317;SDS011;11831;55.918;37.746;2023-07-16T09:27:37;4.43;;;4.05;;
23317;SDS011;11831;55.918;37.746;2023-07-16T09:30:04;4.15;;;3.85;;
23317;SDS011;11831;55.918;37.746;2023-07-16T09:32:35;5.40;;;4.85;;
23317;SDS011;11831;55.918;37.746;2023-07-16T09:35:07;4.65;;;4.05;;
23317;SDS011;11831;55.918;37.746;2023-07-16T09:37:36;5.35;;;3.90;;
23317;SDS011;11831;55.918;37.746;2023-07-16T09:40:07;4.12;;;3.72;;
23317;SDS011;11831;55.918;37.746;2023-07-16T09:42:37;5.70;;;3.53;;
23317;SDS011;11831;55.918;37.746;2023-07-16T09:45:08;4.22;;;3.83;;
23317;SDS011;11831;55.918;37.746;2023-07-16T09:47:42;3.80;;;3.50;;
23317;SDS011;11831;55.918;37.746;2023-07-16T09:50:10;4.47;;;3.70;;
23317;SDS011;11831;55.918;37.746;2023-07-16T09:52:37;4.37;;;3.97;;
23317;SDS011;11831;55.918;37.746;2023-07-16T09:55:05;4.18;;;3.78;;
23317;SDS011;11831;55.918;37.746;2023-07-16T09:57:38;3.95;;;3.65;;
23317;SDS011;11831;55.918;37.746;2023-07-16T10:00:08;4.22;;;3.83;;
23317;SDS011;11831;55.918;37.746;2023-07-16T10:02:40;4.00;;;3.70;;
23317;SDS011;11831;55.918;37.746;2023-07-16T10:07:42;16.27;;;14.63;;
23317;SDS011;11831;55.918;37.746;2023-07-16T10:10:15;7.53;;;3.72;;
23317;SDS011;11831;55.918;37.746;2023-07-16T10:12:53;3.67;;;3.37;;
23317;SDS011;11831;55.918;37.746;2023-07-16T10:15:25;5.80;;;3.90;;
23317;SDS011;11831;55.918;37.746;2023-07-16T10:17:53;5.78;;;3.80;;
23317;SDS011;11831;55.918;37.746;2023-07-16T10:20:36;4.90;;;3.80;;
23317;SDS011;11831;55.918;37.746;2023-07-16T10:23:12;4.03;;;3.72;;
23317;SDS011;11831;55.918;37.746;2023-07-16T10:25:39;4.20;;;3.53;;
23317;SDS011;11831;55.918;37.746;2023-07-16T10:28:06;4.87;;;3.67;;
23317;SDS011;11831;55.918;37.746;2023-07-16T10:30:32;5.07;;;3.70;;
23317;SDS011;11831;55.918;37.746;2023-07-16T10:33:02;4.35;;;3.95;;
23317;SDS011;11831;55.918;37.746;2023-07-16T10:35:40;4.57;;;3.50;;
23317;SDS011;11831;55.918;37.746;2023-07-16T10:38:07;4.22;;;3.83;;
23317;SDS011;11831;55.918;37.746;2023-07-16T10:40:38;4.32;;;3.92;;
23317;SDS011;11831;55.918;37.746;2023-07-16T10:43:06;3.85;;;3.55;;
23317;SDS011;11831;55.918;37.746;2023-07-16T10:45:32;4.28;;;3.87;;
23317;SDS011;11831;55.918;37.746;2023-07-16T10:47:59;4.07;;;3.70;;
23317;SDS011;11831;55.918;37.746;2023-07-16T10:50:25;3.83;;;3.53;;
23317;SDS011;11831;55.918;37.746;2023-07-16T10:52:55;4.57;;;3.87;;
23317;SDS011;11831;55.918;37.746;2023-07-16T10:55:23;4.40;;;4.00;;
23317;SDS011;11831;55.918;37.746;2023-07-16T10:57:51;6.75;;;4.15;;
23317;SDS011;11831;55.918;37.746;2023-07-16T11:00:20;7.22;;;4.18;;
23317;SDS011;11831;55.918;37.746;2023-07-16T11:02:48;3.58;;;3.28;;
23317;SDS011;11831;55.918;37.746;2023-07-16T11:05:16;4.12;;;3.22;;
23317;SDS011;11831;55.918;37.746;2023-07-16T11:07:45;4.55;;;3.45;;
23317;SDS011;11831;55.918;37.746;2023-07-16T11:10:15;3.58;;;3.30;;
23317;SDS011;11831;55.918;37.746;2023-07-16T11:12:42;4.35;;;3.78;;
23317;SDS011;11831;55.918;37.746;2023-07-16T11:15:10;4.10;;;3.58;;
23317;SDS011;11831;55.918;37.746;2023-07-16T11:17:37;4.18;;;3.72;;
23317;SDS011;11831;55.918;37.746;2023-07-16T11:20:07;4.47;;;3.90;;
23317;SDS011;11831;55.918;37.746;2023-07-16T11:22:36;4.57;;;3.80;;
23317;SDS011;11831;55.918;37.746;2023-07-16T11:25:04;5.07;;;3.37;;
23317;SDS011;11831;55.918;37.746;2023-07-16T11:27:37;3.70;;;3.08;;
23317;SDS011;11831;55.918;37.746;2023-07-16T11:30:07;4.45;;;3.70;;
23317;SDS011;11831;55.918;37.746;2023-07-16T11:32:36;8.15;;;3.72;;
23317;SDS011;11831;55.918;37.746;2023-07-16T11:35:06;6.05;;;4.05;;
23317;SDS011;11831;55.918;37.746;2023-07-16T11:37:35;4.03;;;3.62;;
23317;SDS011;11831;55.918;37.746;2023-07-16T11:40:06;5.53;;;3.50;;
23317;SDS011;11831;55.918;37.746;2023-07-16T11:45:02;5.78;;;3.53;;
23317;SDS011;11831;55.918;37.746;2023-07-16T11:47:33;4.07;;;3.20;;
23317;SDS011;11831;55.918;37.746;2023-07-16T11:49:59;5.15;;;3.65;;
23317;SDS011;11831;55.918;37.746;2023-07-16T11:52:26;4.07;;;3.67;;
23317;SDS011;11831;55.918;37.746;2023-07-16T11:54:55;5.50;;;3.92;;
23317;SDS011;11831;55.918;37.746;2023-07-16T11:57:25;7.03;;;4.32;;
23317;SDS011;11831;55.918;37.746;2023-07-16T11:59:52;4.47;;;3.65;;
23317;SDS011;11831;55.918;37.746;2023-07-16T12:02:19;3.70;;;3.40;;
23317;SDS011;11831;55.918;37.746;2023-07-16T12:04:46;3.75;;;3.00;;
23317;SDS011;11831;55.918;37.746;2023-07-16T12:07:12;6.75;;;6.07;;
23317;SDS011;11831;55.918;37.746;2023-07-16T12:09:39;5.53;;;3.67;;
23317;SDS011;11831;55.918;37.746;2023-07-16T12:12:05;4.40;;;3.62;;
23317;SDS011;11831;55.918;37.746;2023-07-16T12:14:32;3.80;;;3.50;;
23317;SDS011;11831;55.918;37.746;2023-07-16T12:16:59;3.83;;;3.53;;
23317;SDS011;11831;55.918;37.746;2023-07-16T12:19:25;4.18;;;3.10;;
23317;SDS011;11831;55.918;37.746;2023-07-16T12:21:51;3.85;;;3.50;;
23317;SDS011;11831;55.918;37.746;2023-07-16T12:24:17;5.62;;;3.85;;
23317;SDS011;11831;55.918;37.746;2023-07-16T12:26:44;3.80;;;3.50;;
23317;SDS011;11831;55.918;37.746;2023-07-16T12:29:10;3.70;;;3.40;;
23317;SDS011;11831;55.918;37.746;2023-07-16T12:31:36;3.75;;;3.50;;
23317;SDS011;11831;55.918;37.746;2023-07-16T12:34:03;3.55;;;3.25;;
23317;SDS011;11831;55.918;37.746;2023-07-16T12:36:30;7.20;;;3.53;;
23317;SDS011;11831;55.918;37.746;2023-07-16T12:38:56;4.05;;;3.75;;
23317;SDS011;11831;55.918;37.746;2023-07-16T12:41:23;3.58;;;3.20;;
23317;SDS011;11831;55.918;37.746;2023-07-16T12:43:49;5.12;;;3.15;;
23317;SDS011;11831;55.918;37.746;2023-07-16T12:46:15;3.80;;;3.50;;
23317;SDS011;11831;55.918;37.746;2023-07-16T12:48:42;3.87;;;3.58;;
23317;SDS011;11831;55.918;37.746;2023-07-16T12:51:09;4.47;;;3.50;;
23317;SDS011;11831;55.918;37.746;2023-07-16T12:53:35;4.18;;;3.10;;
23317;SDS011;11831;55.918;37.746;2023-07-16T12:56:01;4.25;;;3.05;;
23317;SDS011;11831;55.918;37.746;2023-07-16T12:58:28;3.45;;;3.22;;
23317;SDS011;11831;55.918;37.746;2023-07-16T13:00:55;4.15;;;3.83;;
23317;SDS011;11831;55.918;37.746;2023-07-16T13:03:21;4.87;;;3.60;;
23317;SDS011;11831;55.918;37.746;2023-07-16T13:05:47;3.78;;;3.47;;
23317;SDS011;11831;55.918;37.746;2023-07-16T13:08:14;4.25;;;3.25;;
23317;SDS011;11831;55.918;37.746;2023-07-16T13:10:40;4.50;;;3.75;;
23317;SDS011;11831;55.918;37.746;2023-07-16T13:13:07;4.03;;;3.62;;
23317;SDS011;11831;55.918;37.746;2023-07-16T13:15:34;5.57;;;3.92;;
23317;SDS011;11831;55.918;37.746;2023-07-16T13:18:00;4.03;;;3.60;;
23317;SDS011;11831;55.918;37.746;2023-07-16T13:20:27;3.87;;;3.22;;
23317;SDS011;11831;55.918;37.746;2023-07-16T13:22:55;3.85;;;3.50;;
23317;SDS011;11831;55.918;37.746;2023-07-16T13:25:22;4.47;;;3.22;;
23317;SDS011;11831;55.918;37.746;2023-07-16T13:27:49;6.57;;;3.83;;
23317;SDS011;11831;55.918;37.746;2023-07-16T13:30:15;4.70;;;3.75;;
23317;SDS011;11831;55.918;37.746;2023-07-16T13:32:42;4.70;;;4.25;;
23317;SDS011;11831;55.918;37.746;2023-07-16T13:35:08;5.15;;;3.58;;
23317;SDS011;11831;55.918;37.746;2023-07-16T13:37:34;3.90;;;3.53;;
23317;SDS011;11831;55.918;37.746;2023-07-16T13:40:01;5.78;;;3.90;;
23317;SDS011;11831;55.918;37.746;2023-07-16T13:42:30;4.60;;;3.37;;
23317;SDS011;11831;55.918;37.746;2023-07-16T13:44:56;4.97;;;3.55;;
23317;SDS011;11831;55.918;37.746;2023-07-16T13:47:23;4.03;;;3.47;;
23317;SDS011;11831;55.918;37.746;2023-07-16T13:49:50;3.80;;;3.50;;
23317;SDS011;11831;55.918;37.746;2023-07-16T13:52:16;4.25;;;3.85;;
23317;SDS011;11831;55.918;37.746;2023-07-16T13:54:43;4.55;;;3.67;;
23317;SDS011;11831;55.918;37.746;2023-07-16T13:57:09;11.35;;;8.75;;
23317;SDS011;11831;55.918;37.746;2023-07-16T13:59:35;7.95;;;4.32;;
23317;SDS011;11831;55.918;37.746;2023-07-16T14:02:02;5.53;;;3.50;;
23317;SDS011;11831;55.918;37.746;2023-07-16T14:04:29;3.95;;;3.55;;
23317;SDS011;11831;55.918;37.746;2023-07-16T14:06:55;5.12;;;3.37;;
23317;SDS011;11831;55.918;37.746;2023-07-16T14:09:22;3.72;;;3.22;;
23317;SDS011;11831;55.918;37.746;2023-07-16T14:11:48;3.20;;;3.00;;
23317;SDS011;11831;55.918;37.746;2023-07-16T14:14:15;3.83;;;3.42;;
23317;SDS011;11831;55.918;37.746;2023-07-16T14:16:41;4.75;;;3.17;;
23317;SDS011;11831;55.918;37.746;2023-07-16T14:19:09;4.28;;;3.15;;
23317;SDS011;11831;55.918;37.746;2023-07-16T14:21:38;3.70;;;3.40;;
23317;SDS011;11831;55.918;37.746;2023-07-16T14:24:05;4.05;;;3.30;;
23317;SDS011;11831;55.918;37.746;2023-07-16T14:26:31;5.60;;;3.20;;
23317;SDS011;11831;55.918;37.746;2023-07-16T14:28:59;4.37;;;3.35;;
23317;SDS011;11831;55.918;37.746;2023-07-16T14:31:26;4.87;;;3.60;;
23317;SDS011;11831;55.918;37.746;2023-07-16T14:33:52;5.03;;;3.15;;
23317;SDS011;11831;55.918;37.746;2023-07-16T14:36:18;3.60;;;3.25;;
23317;SDS011;11831;55.918;37.746;2023-07-16T14:38:45;3.00;;;2.70;;
23317;SDS011;11831;55.918;37.746;2023-07-16T14:41:11;3.75;;;3.45;;
23317;SDS011;11831;55.918;37.746;2023-07-16T14:43:37;6.15;;;5.43;;
23317;SDS011;11831;55.918;37.746;2023-07-16T14:46:03;5.82;;;4.20;;
23317;SDS011;11831;55.918;37.746;2023-07-16T14:48:30;3.50;;;3.20;;